createdAt,value
2024-04-07T00:00:54.809Z,17.66
2024-04-07T00:01:54.779Z,17.67
2024-04-07T00:02:54.760Z,17.62
2024-04-07T00:03:54.744Z,17.59
2024-04-07T00:04:54.731Z,17.59
2024-04-07T00:05:57.278Z,17.59
2024-04-07T00:06:54.733Z,17.62
2024-04-07T00:07:54.707Z,17.62
2024-04-07T00:08:54.713Z,17.57
2024-04-07T00:09:54.680Z,17.55
2024-04-07T00:10:54.735Z,17.57
2024-04-07T00:11:54.691Z,17.57
2024-04-07T00:12:54.695Z,17.57
2024-04-07T00:13:54.648Z,17.55
2024-04-07T00:14:54.634Z,17.53
2024-04-07T00:15:54.628Z,17.55
2024-04-07T00:16:54.610Z,17.54
2024-04-07T00:17:54.606Z,17.51
2024-04-07T00:18:54.617Z,17.50
2024-04-07T00:19:54.938Z,17.47
2024-04-07T00:20:54.573Z,17.40
2024-04-07T00:21:54.561Z,17.36
2024-04-07T00:22:54.632Z,17.36
2024-04-07T00:23:54.548Z,17.32
2024-04-07T00:24:54.561Z,17.30
2024-04-07T00:25:54.527Z,17.26
2024-04-07T00:26:54.526Z,17.28
2024-04-07T00:27:54.520Z,17.23
2024-04-07T00:28:54.501Z,17.22
2024-04-07T00:29:54.501Z,17.20
2024-04-07T00:30:54.495Z,17.22
2024-04-07T00:31:54.467Z,17.18
2024-04-07T00:32:54.499Z,17.15
2024-04-07T00:33:54.455Z,17.08
2024-04-07T00:34:54.448Z,17.10
2024-04-07T00:35:54.440Z,17.08
2024-04-07T00:36:54.453Z,17.06
2024-04-07T00:37:54.410Z,17.03
2024-04-07T00:38:54.400Z,17.00
2024-04-07T00:39:54.388Z,17.00
2024-04-07T00:40:56.670Z,16.98
2024-04-07T00:41:54.373Z,16.93
2024-04-07T00:42:54.391Z,16.95
2024-04-07T00:43:54.349Z,16.93
2024-04-07T00:44:54.351Z,16.90
2024-04-07T00:45:54.327Z,16.89
2024-04-07T00:46:54.349Z,16.83
2024-04-07T00:47:54.315Z,16.81
2024-04-07T00:48:54.353Z,16.81
2024-04-07T00:49:54.311Z,16.78
2024-04-07T00:50:54.287Z,16.80
2024-04-07T00:51:54.275Z,16.78
2024-04-07T00:52:54.279Z,16.78
2024-04-07T00:53:54.254Z,16.77
2024-04-07T00:54:54.274Z,16.73
2024-04-07T00:55:54.248Z,16.71
2024-04-07T00:56:54.219Z,16.75
2024-04-07T00:57:54.236Z,16.70
2024-04-07T00:58:54.207Z,16.68
2024-04-07T00:59:54.210Z,16.71
2024-04-07T01:00:54.215Z,16.70
2024-04-07T01:01:54.172Z,16.68
2024-04-07T01:02:54.159Z,16.65
2024-04-07T01:03:54.157Z,16.63
2024-04-07T01:04:54.145Z,16.67
2024-04-07T01:05:57.571Z,16.65
2024-04-07T01:06:54.146Z,16.67
2024-04-07T01:07:54.131Z,16.67
2024-04-07T01:08:54.107Z,16.74
2024-04-07T01:09:54.129Z,16.73
2024-04-07T01:10:54.147Z,16.74
2024-04-07T01:11:54.086Z,16.75
2024-04-07T01:12:54.093Z,16.80
2024-04-07T01:13:54.051Z,16.78
2024-04-07T01:14:54.049Z,16.78
2024-04-07T01:15:54.045Z,16.81
2024-04-07T01:16:54.039Z,16.86
2024-04-07T01:17:54.024Z,16.90
2024-04-07T01:18:54.055Z,16.88
2024-04-07T01:19:54.013Z,16.92
2024-04-07T01:20:53.991Z,16.93
2024-04-07T01:21:53.980Z,16.95
2024-04-07T01:22:53.970Z,16.98
2024-04-07T01:23:53.956Z,16.95
2024-04-07T01:24:53.965Z,16.98
2024-04-07T01:25:53.988Z,17.00
2024-04-07T01:26:53.939Z,17.07
2024-04-07T01:27:53.930Z,17.08
2024-04-07T01:28:53.932Z,17.07
2024-04-07T01:29:53.905Z,17.13
2024-04-07T01:30:53.914Z,17.14
2024-04-07T01:31:53.916Z,17.17
2024-04-07T01:32:53.879Z,17.18
2024-04-07T01:33:53.868Z,17.22
2024-04-07T01:34:53.865Z,17.23
2024-04-07T01:35:53.886Z,17.25
2024-04-07T01:36:53.884Z,17.28
2024-04-07T01:37:53.829Z,17.29
2024-04-07T01:38:53.814Z,17.30
2024-04-07T01:39:53.805Z,17.30
2024-04-07T01:40:53.803Z,17.32
2024-04-07T01:41:53.783Z,17.36
2024-04-07T01:42:53.801Z,17.35
2024-04-07T01:43:53.772Z,17.36
2024-04-07T01:44:53.756Z,17.35
2024-04-07T01:45:53.753Z,17.35
2024-04-07T01:46:53.743Z,17.35
2024-04-07T01:47:53.757Z,17.36
2024-04-07T01:48:53.781Z,17.36
2024-04-07T01:49:53.720Z,17.36
2024-04-07T01:50:53.697Z,17.38
2024-04-07T01:51:53.696Z,17.38
2024-04-07T01:52:53.678Z,17.36
2024-04-07T01:53:53.678Z,17.40
2024-04-07T01:54:53.685Z,17.36
2024-04-07T01:55:53.647Z,17.40
2024-04-07T01:56:53.639Z,17.41
2024-04-07T01:57:53.666Z,17.41
2024-04-07T01:58:53.617Z,17.41
2024-04-07T01:59:53.616Z,17.44
2024-04-07T02:00:53.626Z,17.41
2024-04-07T02:01:53.591Z,17.44
2024-04-07T02:02:53.580Z,17.44
2024-04-07T02:03:53.581Z,17.51
2024-04-07T02:04:53.614Z,17.55
2024-04-07T02:05:53.577Z,17.50
2024-04-07T02:06:53.573Z,17.50
2024-04-07T02:07:53.529Z,17.47
2024-04-07T02:08:53.519Z,17.46
2024-04-07T02:09:53.506Z,17.47
2024-04-07T02:10:53.509Z,17.48
2024-04-07T02:11:53.489Z,17.47
2024-04-07T02:12:53.522Z,17.46
2024-04-07T02:13:53.466Z,17.47
2024-04-07T02:14:53.464Z,17.44
2024-04-07T02:15:53.453Z,17.46
2024-04-07T02:16:53.445Z,17.44
2024-04-07T02:17:53.440Z,17.43
2024-04-07T02:18:53.468Z,17.40
2024-04-07T02:19:53.416Z,17.40
2024-04-07T02:20:53.411Z,17.43
2024-04-07T02:21:53.404Z,17.41
2024-04-07T02:22:53.391Z,17.43
2024-04-07T02:23:53.372Z,17.40
2024-04-07T02:24:53.401Z,17.40
2024-04-07T02:25:53.360Z,17.38
2024-04-07T02:26:53.339Z,17.36
2024-04-07T02:27:53.329Z,17.36
2024-04-07T02:28:53.318Z,17.32
2024-04-07T02:29:53.325Z,17.32
2024-04-07T02:30:53.352Z,17.33
2024-04-07T02:31:53.288Z,17.28
2024-04-07T02:32:53.287Z,17.30
2024-04-07T02:33:53.276Z,17.30
2024-04-07T02:34:53.264Z,17.30
2024-04-07T02:35:53.266Z,17.30
2024-04-07T02:36:53.270Z,17.33
2024-04-07T02:37:53.235Z,17.30
2024-04-07T02:38:53.231Z,17.32
2024-04-07T02:39:53.216Z,17.32
2024-04-07T02:40:53.220Z,17.30
2024-04-07T02:41:53.192Z,17.30
2024-04-07T02:42:53.260Z,17.33
2024-04-07T02:43:53.172Z,17.32
2024-04-07T02:44:53.168Z,17.30
2024-04-07T02:45:53.160Z,17.32
2024-04-07T02:46:53.155Z,17.29
2024-04-07T02:47:53.143Z,17.30
2024-04-07T02:48:53.185Z,17.28
2024-04-07T02:49:53.119Z,17.28
2024-04-07T02:50:53.104Z,17.28
2024-04-07T02:51:53.098Z,17.29
2024-04-07T02:52:53.085Z,17.30
2024-04-07T02:53:55.472Z,17.29
2024-04-07T02:54:53.113Z,17.32
2024-04-07T02:55:53.061Z,17.32
2024-04-07T02:56:53.052Z,17.29
2024-04-07T02:57:53.044Z,17.28
2024-04-07T02:58:53.097Z,17.30
2024-04-07T02:59:53.013Z,17.32
2024-04-07T03:00:53.071Z,17.36
2024-04-07T03:01:53.011Z,17.33
2024-04-07T03:02:52.982Z,17.33
2024-04-07T03:03:52.983Z,17.32
2024-04-07T03:04:52.982Z,17.30
2024-04-07T03:05:52.959Z,17.28
2024-04-07T03:06:52.992Z,17.28
2024-04-07T03:07:52.960Z,17.28
2024-04-07T03:08:52.931Z,17.25
2024-04-07T03:09:52.913Z,17.23
2024-04-07T03:10:52.951Z,17.15
2024-04-07T03:11:52.903Z,17.13
2024-04-07T03:12:52.914Z,17.14
2024-04-07T03:13:52.898Z,17.11
2024-04-07T03:14:52.884Z,17.07
2024-04-07T03:15:52.855Z,17.04
2024-04-07T03:16:52.903Z,17.03
2024-04-07T03:17:52.858Z,17.06
2024-04-07T03:18:52.843Z,17.04
2024-04-07T03:19:52.840Z,17.04
2024-04-07T03:20:52.807Z,16.99
2024-04-07T03:21:52.794Z,17.03
2024-04-07T03:22:52.792Z,16.98
2024-04-07T03:23:52.813Z,16.96
2024-04-07T03:24:52.782Z,16.99
2024-04-07T03:25:52.797Z,16.99
2024-04-07T03:26:52.750Z,17.04
2024-04-07T03:27:52.735Z,17.03
2024-04-07T03:28:52.773Z,17.04
2024-04-07T03:29:52.717Z,17.06
2024-04-07T03:30:52.738Z,17.08
2024-04-07T03:31:52.743Z,17.10
2024-04-07T03:32:52.686Z,17.13
2024-04-07T03:33:52.681Z,17.15
2024-04-07T03:34:52.731Z,17.14
2024-04-07T03:35:52.681Z,17.14
2024-04-07T03:36:52.666Z,17.14
2024-04-07T03:37:52.641Z,17.17
2024-04-07T03:38:52.634Z,17.22
2024-04-07T03:39:52.621Z,17.23
2024-04-07T03:40:52.618Z,17.22
2024-04-07T03:41:52.651Z,17.26
2024-04-07T03:42:52.608Z,17.22
2024-04-07T03:43:52.627Z,17.23
2024-04-07T03:44:52.575Z,17.29
2024-04-07T03:45:52.565Z,17.29
2024-04-07T03:46:52.573Z,17.25
2024-04-07T03:47:52.538Z,17.26
2024-04-07T03:48:52.564Z,17.28
2024-04-07T03:49:52.605Z,17.32
2024-04-07T03:50:52.511Z,17.33
2024-04-07T03:51:52.499Z,17.32
2024-04-07T03:52:52.503Z,17.38
2024-04-07T03:53:52.481Z,17.33
2024-04-07T03:54:52.519Z,17.36
2024-04-07T03:55:52.460Z,17.38
2024-04-07T03:56:52.462Z,17.41
2024-04-07T03:57:52.439Z,17.44
2024-04-07T03:58:52.475Z,17.50
2024-04-07T03:59:52.424Z,17.48
2024-04-07T04:00:52.429Z,17.57
2024-04-07T04:01:52.436Z,17.55
2024-04-07T04:02:52.395Z,17.63
2024-04-07T04:03:52.407Z,17.67
2024-04-07T04:04:52.400Z,17.74
2024-04-07T04:05:52.365Z,17.79
2024-04-07T04:06:52.396Z,17.81
2024-04-07T04:07:52.423Z,17.79
2024-04-07T04:08:52.338Z,17.81
2024-04-07T04:09:52.335Z,17.82
2024-04-07T04:10:52.330Z,17.81
2024-04-07T04:11:52.261Z,17.81
2024-04-07T04:12:52.290Z,17.85
2024-04-07T04:13:52.384Z,17.88
2024-04-07T04:14:52.217Z,17.88
2024-04-07T04:15:52.227Z,17.87
2024-04-07T04:16:52.268Z,17.82
2024-04-07T04:17:52.187Z,17.87
2024-04-07T04:18:52.199Z,17.85
2024-04-07T04:19:52.229Z,17.84
2024-04-07T04:20:52.164Z,17.79
2024-04-07T04:21:52.158Z,17.78
2024-04-07T04:22:52.227Z,17.73
2024-04-07T04:23:52.138Z,17.73
2024-04-07T04:24:52.139Z,17.69
2024-04-07T04:25:52.179Z,17.69
2024-04-07T04:26:52.111Z,17.66
2024-04-07T04:27:52.135Z,17.67
2024-04-07T04:28:52.137Z,17.63
2024-04-07T04:29:52.076Z,17.57
2024-04-07T04:30:52.081Z,17.54
2024-04-07T04:31:52.079Z,17.50
2024-04-07T04:32:52.054Z,17.46
2024-04-07T04:33:52.030Z,17.43
2024-04-07T04:34:52.034Z,17.38
2024-04-07T04:35:52.013Z,17.40
2024-04-07T04:36:52.030Z,17.32
2024-04-07T04:37:52.026Z,17.33
2024-04-07T04:38:52.010Z,17.25
2024-04-07T04:39:51.976Z,17.23
2024-04-07T04:40:52.013Z,17.18
2024-04-07T04:41:51.964Z,17.15
2024-04-07T04:42:51.965Z,17.15
2024-04-07T04:43:51.990Z,17.14
2024-04-07T04:44:51.926Z,17.13
2024-04-07T04:45:51.918Z,17.08
2024-04-07T04:46:51.933Z,17.06
2024-04-07T04:47:51.895Z,17.07
2024-04-07T04:48:51.927Z,17.06
2024-04-07T04:49:51.891Z,16.99
2024-04-07T04:50:51.868Z,17.00
2024-04-07T04:51:51.859Z,16.99
2024-04-07T04:52:53.637Z,16.98
2024-04-07T04:53:51.833Z,16.98
2024-04-07T04:54:51.849Z,16.95
2024-04-07T04:55:51.853Z,16.96
2024-04-07T04:56:51.810Z,16.96
2024-04-07T04:57:51.819Z,16.92
2024-04-07T04:58:51.795Z,16.92
2024-04-07T04:59:51.778Z,16.95
2024-04-07T05:00:51.814Z,16.90
2024-04-07T05:01:51.789Z,16.89
2024-04-07T05:02:51.758Z,16.90
2024-04-07T05:03:51.744Z,16.89
2024-04-07T05:04:51.797Z,16.86
2024-04-07T05:05:51.748Z,16.89
2024-04-07T05:06:51.733Z,16.83
2024-04-07T05:07:51.722Z,16.88
2024-04-07T05:08:51.691Z,16.88
2024-04-07T05:09:51.691Z,16.88
2024-04-07T05:10:51.753Z,16.88
2024-04-07T05:11:51.661Z,16.92
2024-04-07T05:12:51.676Z,16.86
2024-04-07T05:13:51.683Z,16.88
2024-04-07T05:14:51.645Z,16.89
2024-04-07T05:15:51.621Z,16.88
2024-04-07T05:16:51.668Z,16.88
2024-04-07T05:17:51.607Z,16.90
2024-04-07T05:18:51.707Z,16.86
2024-04-07T05:19:51.613Z,16.86
2024-04-07T05:20:51.591Z,16.86
2024-04-07T05:21:51.578Z,16.86
2024-04-07T05:22:51.575Z,16.86
2024-04-07T05:23:51.556Z,16.86
2024-04-07T05:24:51.590Z,16.88
2024-04-07T05:25:51.535Z,16.86
2024-04-07T05:26:51.516Z,16.86
2024-04-07T05:27:51.514Z,16.85
2024-04-07T05:28:51.520Z,16.81
2024-04-07T05:29:51.493Z,16.85
2024-04-07T05:30:51.505Z,16.83
2024-04-07T05:31:51.481Z,16.83
2024-04-07T05:32:51.457Z,16.80
2024-04-07T05:33:51.477Z,16.81
2024-04-07T05:34:51.488Z,16.88
2024-04-07T05:35:51.432Z,16.86
2024-04-07T05:36:51.444Z,16.86
2024-04-07T05:37:51.449Z,16.85
2024-04-07T05:38:51.410Z,16.85
2024-04-07T05:39:51.455Z,16.83
2024-04-07T05:40:51.456Z,16.85
2024-04-07T05:41:51.372Z,16.86
2024-04-07T05:42:51.382Z,16.85
2024-04-07T05:43:51.368Z,16.83
2024-04-07T05:44:51.341Z,16.81
2024-04-07T05:45:51.361Z,16.85
2024-04-07T05:46:51.342Z,16.88
2024-04-07T05:47:51.313Z,16.88
2024-04-07T05:48:51.345Z,16.86
2024-04-07T05:49:51.306Z,16.86
2024-04-07T05:50:51.305Z,16.83
2024-04-07T05:51:51.307Z,16.83
2024-04-07T05:52:51.278Z,16.85
2024-04-07T05:53:51.259Z,16.86
2024-04-07T05:54:51.266Z,16.85
2024-04-07T05:55:51.249Z,16.90
2024-04-07T05:56:51.224Z,16.86
2024-04-07T05:57:51.229Z,16.88
2024-04-07T05:58:51.212Z,16.88
2024-04-07T05:59:51.208Z,16.90
2024-04-07T06:00:51.223Z,16.89
2024-04-07T06:01:51.274Z,16.88
2024-04-07T06:02:51.175Z,16.88
2024-04-07T06:03:51.175Z,16.85
2024-04-07T06:04:51.163Z,16.88
2024-04-07T06:05:51.177Z,16.83
2024-04-07T06:06:51.145Z,16.83
2024-04-07T06:07:51.171Z,16.85
2024-04-07T06:08:51.119Z,16.80
2024-04-07T06:09:51.123Z,16.83
2024-04-07T06:10:51.103Z,16.80
2024-04-07T06:11:51.088Z,16.78
2024-04-07T06:12:51.112Z,16.81
2024-04-07T06:13:51.094Z,16.81
2024-04-07T06:14:51.058Z,16.80
2024-04-07T06:15:51.042Z,16.81
2024-04-07T06:16:51.062Z,16.81
2024-04-07T06:17:51.023Z,16.80
2024-04-07T06:18:51.031Z,16.78
2024-04-07T06:19:51.102Z,16.78
2024-04-07T06:20:52.800Z,16.83
2024-04-07T06:21:50.985Z,16.81
2024-04-07T06:22:51.034Z,16.81
2024-04-07T06:23:50.965Z,16.85
2024-04-07T06:24:50.991Z,16.80
2024-04-07T06:25:50.958Z,16.81
2024-04-07T06:26:50.938Z,16.80
2024-04-07T06:27:50.928Z,16.81
2024-04-07T06:28:50.971Z,16.86
2024-04-07T06:29:50.915Z,16.88
2024-04-07T06:30:50.921Z,16.88
2024-04-07T06:31:50.941Z,16.90
2024-04-07T06:32:50.911Z,16.92
2024-04-07T06:33:50.891Z,16.88
2024-04-07T06:34:50.887Z,16.92
2024-04-07T06:35:50.857Z,16.92
2024-04-07T06:36:50.861Z,16.93
2024-04-07T06:37:50.853Z,16.93
2024-04-07T06:38:50.832Z,16.95
2024-04-07T06:39:50.827Z,16.95
2024-04-07T06:40:50.863Z,16.96
2024-04-07T06:41:50.795Z,16.98
2024-04-07T06:42:50.816Z,16.98
2024-04-07T06:43:50.781Z,16.92
2024-04-07T06:44:50.769Z,16.90
2024-04-07T06:45:50.761Z,16.86
2024-04-07T06:46:50.854Z,16.85
2024-04-07T06:47:50.745Z,16.80
2024-04-07T06:48:50.745Z,16.78
2024-04-07T06:49:50.719Z,16.80
2024-04-07T06:50:50.710Z,16.74
2024-04-07T06:51:50.696Z,16.70
2024-04-07T06:52:50.698Z,16.65
2024-04-07T06:53:50.675Z,16.56
2024-04-07T06:54:50.709Z,16.45
2024-04-07T06:55:50.685Z,16.42
2024-04-07T06:56:50.643Z,16.38
2024-04-07T06:57:52.829Z,16.25
2024-04-07T06:58:50.687Z,16.16
2024-04-07T06:59:50.632Z,16.16
2024-04-07T07:00:50.658Z,16.09
2024-04-07T07:01:50.633Z,15.97
2024-04-07T07:02:50.601Z,15.93
2024-04-07T07:03:50.575Z,15.85
2024-04-07T07:04:50.623Z,15.81
2024-04-07T07:05:50.559Z,15.74
2024-04-07T07:06:50.592Z,15.76
2024-04-07T07:07:50.553Z,15.75
2024-04-07T07:08:50.536Z,15.75
2024-04-07T07:09:50.530Z,15.78
2024-04-07T07:10:50.564Z,15.86
2024-04-07T07:11:50.503Z,15.89
2024-04-07T07:12:50.515Z,15.88
2024-04-07T07:13:50.509Z,15.88
2024-04-07T07:14:50.524Z,15.94
2024-04-07T07:15:50.470Z,16.00
2024-04-07T07:16:50.451Z,16.03
2024-04-07T07:17:50.442Z,16.06
2024-04-07T07:18:50.455Z,16.09
2024-04-07T07:19:50.490Z,16.16
2024-04-07T07:20:50.414Z,16.18
2024-04-07T07:21:50.411Z,16.23
2024-04-07T07:22:50.396Z,16.27
2024-04-07T07:23:50.453Z,16.31
2024-04-07T07:24:50.392Z,16.35
2024-04-07T07:25:50.368Z,16.38
2024-04-07T07:26:50.358Z,16.45
2024-04-07T07:27:50.345Z,16.50
2024-04-07T07:28:50.370Z,16.56
2024-04-07T07:29:50.336Z,16.62
2024-04-07T07:30:50.340Z,16.68
2024-04-07T07:31:50.308Z,16.75
2024-04-07T07:32:50.298Z,16.83
2024-04-07T07:33:50.297Z,16.88
2024-04-07T07:34:50.312Z,16.89
2024-04-07T07:35:50.275Z,16.95
2024-04-07T07:36:50.307Z,16.96
2024-04-07T07:37:50.250Z,17.07
2024-04-07T07:38:50.243Z,17.08
2024-04-07T07:39:50.231Z,17.11
2024-04-07T07:40:50.238Z,17.14
2024-04-07T07:41:50.266Z,17.17
2024-04-07T07:42:50.230Z,17.25
2024-04-07T07:43:50.196Z,17.26
2024-04-07T07:44:50.214Z,17.38
2024-04-07T07:45:50.177Z,17.41
2024-04-07T07:46:50.165Z,17.54
2024-04-07T07:47:50.158Z,17.63
2024-04-07T07:48:50.157Z,17.76
2024-04-07T07:49:50.151Z,17.82
2024-04-07T07:50:50.146Z,17.92
2024-04-07T07:51:50.137Z,18.02
2024-04-07T07:52:50.144Z,18.06
2024-04-07T07:53:50.113Z,18.15
2024-04-07T07:54:50.121Z,18.28
2024-04-07T07:55:50.117Z,18.43
2024-04-07T07:56:50.065Z,18.65
2024-04-07T07:57:50.055Z,18.84
2024-04-07T07:58:50.070Z,18.94
2024-04-07T07:59:50.053Z,19.14
2024-04-07T08:00:50.045Z,19.40
2024-04-07T08:01:50.078Z,19.83
2024-04-07T08:02:50.018Z,20.03
2024-04-07T08:03:50.026Z,20.10
2024-04-07T08:04:50.005Z,20.16
2024-04-07T08:05:49.991Z,20.05
2024-04-07T08:06:50.035Z,19.94
2024-04-07T08:07:49.979Z,19.95
2024-04-07T08:08:49.953Z,19.98
2024-04-07T08:09:52.367Z,20.02
2024-04-07T08:10:49.931Z,19.95
2024-04-07T08:11:49.926Z,19.72
2024-04-07T08:12:49.952Z,19.65
2024-04-07T08:13:49.910Z,19.55
2024-04-07T08:14:49.891Z,19.43
2024-04-07T08:15:49.916Z,19.35
2024-04-07T08:16:49.902Z,19.35
2024-04-07T08:17:49.886Z,19.32
2024-04-07T08:18:49.873Z,19.42
2024-04-07T08:19:49.904Z,19.39
2024-04-07T08:20:49.836Z,19.31
2024-04-07T08:21:49.856Z,19.65
2024-04-07T08:22:49.815Z,20.18
2024-04-07T08:23:49.853Z,20.71
2024-04-07T08:24:49.827Z,21.08
2024-04-07T08:25:49.787Z,20.49
2024-04-07T08:26:49.775Z,20.72
2024-04-07T08:27:49.821Z,21.05
2024-04-07T08:28:49.765Z,20.89
2024-04-07T08:29:49.741Z,21.05
2024-04-07T08:30:49.754Z,20.91
2024-04-07T08:31:49.737Z,20.84
2024-04-07T08:32:49.754Z,21.04
2024-04-07T08:33:49.713Z,21.02
2024-04-07T08:34:49.688Z,21.01
2024-04-07T08:35:49.698Z,21.01
2024-04-07T08:36:49.736Z,21.20
2024-04-07T08:37:49.657Z,20.99
2024-04-07T08:38:49.655Z,21.16
2024-04-07T08:39:49.661Z,21.24
2024-04-07T08:40:49.635Z,21.11
2024-04-07T08:41:49.626Z,20.99
2024-04-07T08:42:49.657Z,21.34
2024-04-07T08:43:49.667Z,21.48
2024-04-07T08:44:49.598Z,21.97
2024-04-07T08:45:49.583Z,22.25
2024-04-07T08:46:49.579Z,22.06
2024-04-07T08:47:49.579Z,21.51
2024-04-07T08:48:49.596Z,21.90
2024-04-07T08:49:49.599Z,21.82
2024-04-07T08:50:49.533Z,21.83
2024-04-07T08:51:49.521Z,21.85
2024-04-07T08:52:49.516Z,21.56
2024-04-07T08:53:49.530Z,21.32
2024-04-07T08:54:49.511Z,21.13
2024-04-07T08:55:49.511Z,21.09
2024-04-07T08:56:49.483Z,21.34
2024-04-07T08:57:49.522Z,21.24
2024-04-07T08:58:49.466Z,21.38
2024-04-07T08:59:49.451Z,21.64
2024-04-07T09:00:49.506Z,21.66
2024-04-07T09:01:49.430Z,21.44
2024-04-07T09:02:49.450Z,21.36
2024-04-07T09:03:49.472Z,21.57
2024-04-07T09:04:49.409Z,21.78
2024-04-07T09:05:49.399Z,22.04
2024-04-07T09:06:49.428Z,21.85
2024-04-07T09:07:49.376Z,21.94
2024-04-07T09:08:49.380Z,21.78
2024-04-07T09:09:49.350Z,21.97
2024-04-07T09:10:49.349Z,22.27
2024-04-07T09:11:49.343Z,22.37
2024-04-07T09:12:49.373Z,22.13
2024-04-07T09:13:49.317Z,22.16
2024-04-07T09:14:49.307Z,22.17
2024-04-07T09:15:49.324Z,21.95
2024-04-07T09:16:49.288Z,22.37
2024-04-07T09:17:49.298Z,22.50
2024-04-07T09:18:49.311Z,22.46
2024-04-07T09:19:49.284Z,22.27
2024-04-07T09:20:49.250Z,22.46
2024-04-07T09:21:49.238Z,22.35
2024-04-07T09:22:49.229Z,22.59
2024-04-07T09:23:49.220Z,22.97
2024-04-07T09:24:49.236Z,23.34
2024-04-07T09:25:49.324Z,23.58
2024-04-07T09:26:49.205Z,23.82
2024-04-07T09:27:49.183Z,23.90
2024-04-07T09:28:49.177Z,24.08
2024-04-07T09:29:49.165Z,23.42
2024-04-07T09:30:49.171Z,23.29
2024-04-07T09:31:49.154Z,22.92
2024-04-07T09:32:49.165Z,22.16
2024-04-07T09:33:49.126Z,22.23
2024-04-07T09:34:49.127Z,22.19
2024-04-07T09:35:49.106Z,22.46
2024-04-07T09:36:49.119Z,22.43
2024-04-07T09:37:49.087Z,22.62
2024-04-07T09:38:49.091Z,22.94
2024-04-07T09:39:49.084Z,23.58
2024-04-07T09:40:49.060Z,24.12
2024-04-07T09:41:49.052Z,24.04
2024-04-07T09:42:49.081Z,24.24
2024-04-07T09:43:49.072Z,23.52
2024-04-07T09:44:49.033Z,23.68
2024-04-07T09:45:49.031Z,24.23
2024-04-07T09:46:49.012Z,24.49
2024-04-07T09:47:49.001Z,24.50
2024-04-07T09:48:49.004Z,24.50
2024-04-07T09:49:48.984Z,24.22
2024-04-07T09:50:48.985Z,24.34
2024-04-07T09:51:48.960Z,24.64
2024-04-07T09:52:48.955Z,25.07
2024-04-07T09:53:48.941Z,25.09
2024-04-07T09:54:48.948Z,24.47
2024-04-07T09:55:48.919Z,24.37
2024-04-07T09:56:48.910Z,23.83
2024-04-07T09:57:48.910Z,23.83
2024-04-07T09:58:48.901Z,23.60
2024-04-07T09:59:48.930Z,23.76
2024-04-07T10:00:48.901Z,23.70
2024-04-07T10:01:48.875Z,23.80
2024-04-07T10:02:48.873Z,23.75
2024-04-07T10:03:48.857Z,23.47
2024-04-07T10:04:48.838Z,23.82
2024-04-07T10:05:48.836Z,24.10
2024-04-07T10:06:48.876Z,24.32
2024-04-07T10:07:48.816Z,23.79
2024-04-07T10:08:48.802Z,23.82
2024-04-07T10:09:48.804Z,24.12
2024-04-07T10:10:58.544Z,24.04
2024-04-07T10:11:48.781Z,24.13
2024-04-07T10:12:48.840Z,23.95
2024-04-07T10:13:48.758Z,23.65
2024-04-07T10:14:48.741Z,23.42
2024-04-07T10:15:48.740Z,23.45
2024-04-07T10:16:48.730Z,23.58
2024-04-07T10:17:48.720Z,23.24
2024-04-07T10:18:48.748Z,23.19
2024-04-07T10:19:48.706Z,23.49
2024-04-07T10:20:48.686Z,24.02
2024-04-07T10:21:48.698Z,24.63
2024-04-07T10:22:48.674Z,24.57
2024-04-07T10:23:49.105Z,23.77
2024-04-07T10:24:48.672Z,24.00
2024-04-07T10:25:48.651Z,23.70
2024-04-07T10:26:48.644Z,23.29
2024-04-07T10:27:48.634Z,23.11
2024-04-07T10:28:48.642Z,23.27
2024-04-07T10:29:48.610Z,23.45
2024-04-07T10:30:48.617Z,23.87
2024-04-07T10:31:48.588Z,24.45
2024-04-07T10:32:48.579Z,24.82
2024-04-07T10:33:48.583Z,24.98
2024-04-07T10:34:48.574Z,24.12
2024-04-07T10:35:48.558Z,23.86
2024-04-07T10:36:48.578Z,23.22
2024-04-07T10:37:48.533Z,23.50
2024-04-07T10:38:48.535Z,24.01
2024-04-07T10:39:48.533Z,23.60
2024-04-07T10:40:48.517Z,23.47
2024-04-07T10:41:48.505Z,23.85
2024-04-07T10:42:48.520Z,23.85
2024-04-07T10:43:48.505Z,23.97
2024-04-07T10:44:48.502Z,24.31
2024-04-07T10:45:48.463Z,24.64
2024-04-07T10:46:48.451Z,24.47
2024-04-07T10:47:48.454Z,24.87
2024-04-07T10:48:48.507Z,24.73
2024-04-07T10:49:48.444Z,25.15
2024-04-07T10:50:48.440Z,24.75
2024-04-07T10:51:48.416Z,25.06
2024-04-07T10:52:48.401Z,25.20
2024-04-07T10:53:48.396Z,25.56
2024-04-07T10:54:48.401Z,25.37
2024-04-07T10:55:48.375Z,24.88
2024-04-07T10:56:48.369Z,24.75
2024-04-07T10:57:48.363Z,24.41
2024-04-07T10:58:48.357Z,24.08
2024-04-07T10:59:48.377Z,24.38
2024-04-07T11:00:48.368Z,24.90
2024-04-07T11:01:48.329Z,24.79
2024-04-07T11:02:48.329Z,24.68
2024-04-07T11:03:48.309Z,25.06
2024-04-07T11:04:48.300Z,25.13
2024-04-07T11:05:48.296Z,25.57
2024-04-07T11:06:48.335Z,25.47
2024-04-07T11:07:48.291Z,25.25
2024-04-07T11:08:48.295Z,25.07
2024-04-07T11:09:48.300Z,25.46
2024-04-07T11:10:48.278Z,25.93
2024-04-07T11:11:48.243Z,25.56
2024-04-07T11:12:48.257Z,25.09
2024-04-07T11:13:48.230Z,24.38
2024-04-07T11:14:48.221Z,24.44
2024-04-07T11:15:48.212Z,24.79
2024-04-07T11:16:48.201Z,24.82
2024-04-07T11:17:48.254Z,24.14
2024-04-07T11:18:48.232Z,24.47
2024-04-07T11:19:48.180Z,24.57
2024-04-07T11:20:48.159Z,24.26
2024-04-07T11:21:48.163Z,24.37
2024-04-07T11:22:48.148Z,24.34
2024-04-07T11:23:48.140Z,24.26
2024-04-07T11:24:48.148Z,25.00
2024-04-07T11:25:48.124Z,25.69
2024-04-07T11:26:48.123Z,25.75
2024-04-07T11:27:48.099Z,25.44
2024-04-07T11:28:48.106Z,25.89
2024-04-07T11:29:48.084Z,26.17
2024-04-07T11:30:48.124Z,25.69
2024-04-07T11:31:54.620Z,24.61
2024-04-07T11:32:48.063Z,24.60
2024-04-07T11:33:48.053Z,25.24
2024-04-07T11:34:48.089Z,25.42
2024-04-07T11:35:48.043Z,25.10
2024-04-07T11:36:48.054Z,24.83
2024-04-07T11:37:48.010Z,24.88
2024-04-07T11:38:47.999Z,24.61
2024-04-07T11:39:56.702Z,24.98
2024-04-07T11:40:48.011Z,24.56
2024-04-07T11:41:47.976Z,24.90
2024-04-07T11:42:47.984Z,25.16
2024-04-07T11:43:47.969Z,25.10
2024-04-07T11:44:47.985Z,24.97
2024-04-07T11:45:47.970Z,24.83
2024-04-07T11:46:47.929Z,24.83
2024-04-07T11:47:47.933Z,24.95
2024-04-07T11:48:47.935Z,25.01
2024-04-07T11:49:47.908Z,25.02
2024-04-07T11:50:47.918Z,24.57
2024-04-07T11:51:47.888Z,24.87
2024-04-07T11:52:47.876Z,25.06
2024-04-07T11:53:47.894Z,25.39
2024-04-07T11:54:47.905Z,25.09
2024-04-07T11:55:47.848Z,24.87
2024-04-07T11:56:47.865Z,25.46
2024-04-07T11:57:47.833Z,25.30
2024-04-07T11:58:47.832Z,25.94
2024-04-07T11:59:47.843Z,25.94
2024-04-07T12:00:47.825Z,26.08
2024-04-07T12:01:47.804Z,25.52
2024-04-07T12:02:47.812Z,25.25
2024-04-07T12:03:47.784Z,24.95
2024-04-07T12:04:47.769Z,25.37
2024-04-07T12:05:47.780Z,25.43
2024-04-07T12:06:47.765Z,25.20
2024-04-07T12:07:47.744Z,25.75
2024-04-07T12:08:47.736Z,26.24
2024-04-07T12:09:47.730Z,26.94
2024-04-07T12:10:47.727Z,27.41
2024-04-07T12:11:47.707Z,27.74
2024-04-07T12:12:47.762Z,27.36
2024-04-07T12:13:47.693Z,27.14
2024-04-07T12:14:47.688Z,26.86
2024-04-07T12:15:47.676Z,26.54
2024-04-07T12:16:47.664Z,26.68
2024-04-07T12:17:47.693Z,27.58
2024-04-07T12:18:47.670Z,28.48
2024-04-07T12:19:47.664Z,27.86
2024-04-07T12:20:47.647Z,27.84
2024-04-07T12:21:47.619Z,28.63
2024-04-07T12:22:47.616Z,28.38
2024-04-07T12:23:47.608Z,28.97
2024-04-07T12:24:47.630Z,29.52
2024-04-07T12:25:47.590Z,28.50
2024-04-07T12:26:47.589Z,28.36
2024-04-07T12:27:47.590Z,28.88
2024-04-07T12:28:47.578Z,28.35
2024-04-07T12:29:47.563Z,28.54
2024-04-07T12:30:47.569Z,28.38
2024-04-07T12:31:49.308Z,28.04
2024-04-07T12:32:47.534Z,28.32
2024-04-07T12:33:47.533Z,28.51
2024-04-07T12:34:47.520Z,28.80
2024-04-07T12:35:47.553Z,28.82
2024-04-07T12:36:47.578Z,28.03
2024-04-07T12:37:49.185Z,27.51
2024-04-07T12:38:47.493Z,26.99
2024-04-07T12:39:47.478Z,26.67
2024-04-07T12:40:47.498Z,26.67
2024-04-07T12:41:47.466Z,26.67
2024-04-07T12:42:47.488Z,26.94
2024-04-07T12:43:49.124Z,26.50
2024-04-07T12:44:47.443Z,27.14
2024-04-07T12:45:47.438Z,27.69
2024-04-07T12:46:47.424Z,27.54
2024-04-07T12:47:47.450Z,27.23
2024-04-07T12:48:47.431Z,27.39
2024-04-07T12:49:47.409Z,27.73
2024-04-07T12:50:47.402Z,27.48
2024-04-07T12:51:47.407Z,27.70
2024-04-07T12:52:47.399Z,27.64